sensor_id;sensor_type;location;lat;lon;timestamp;P1;durP1;ratioP1;P2;durP2;ratioP2
495;SDS011;39559;48.630;9.162;2022-12-07T00:00:39;11.77;;;8.53;;
495;SDS011;39559;48.630;9.162;2022-12-07T00:03:04;10.03;;;7.80;;
495;SDS011;39559;48.630;9.162;2022-12-07T00:05:30;11.53;;;9.13;;
495;SDS011;39559;48.630;9.162;2022-12-07T00:07:55;10.50;;;8.10;;
495;SDS011;39559;48.630;9.162;2022-12-07T00:10:21;10.20;;;8.47;;
495;SDS011;39559;48.630;9.162;2022-12-07T00:12:46;9.77;;;8.77;;
495;SDS011;39559;48.630;9.162;2022-12-07T00:15:12;10.87;;;8.40;;
495;SDS011;39559;48.630;9.162;2022-12-07T00:19:49;12.27;;;8.10;;
495;SDS011;39559;48.630;9.162;2022-12-07T00:22:14;11.13;;;8.33;;
495;SDS011;39559;48.630;9.162;2022-12-07T00:24:40;8.90;;;7.90;;
495;SDS011;39559;48.630;9.162;2022-12-07T00:27:05;12.10;;;9.27;;
495;SDS011;39559;48.630;9.162;2022-12-07T00:29:31;11.07;;;8.30;;
495;SDS011;39559;48.630;9.162;2022-12-07T00:31:56;10.30;;;8.53;;
495;SDS011;39559;48.630;9.162;2022-12-07T00:34:22;15.73;;;10.63;;
495;SDS011;39559;48.630;9.162;2022-12-07T00:36:48;13.50;;;9.57;;
495;SDS011;39559;48.630;9.162;2022-12-07T00:39:14;11.30;;;8.68;;
495;SDS011;39559;48.630;9.162;2022-12-07T00:43:50;10.38;;;7.90;;
495;SDS011;39559;48.630;9.162;2022-12-07T00:46:16;10.18;;;8.05;;
495;SDS011;39559;48.630;9.162;2022-12-07T00:48:43;10.57;;;8.48;;
495;SDS011;39559;48.630;9.162;2022-12-07T00:51:10;11.10;;;8.20;;
495;SDS011;39559;48.630;9.162;2022-12-07T00:53:37;10.55;;;9.27;;
495;SDS011;39559;48.630;9.162;2022-12-07T00:56:06;8.48;;;7.30;;
495;SDS011;39559;48.630;9.162;2022-12-07T00:58:49;10.52;;;8.32;;
495;SDS011;39559;48.630;9.162;2022-12-07T01:01:16;11.38;;;9.18;;
495;SDS011;39559;48.630;9.162;2022-12-07T01:03:41;10.93;;;8.30;;
495;SDS011;39559;48.630;9.162;2022-12-07T01:07:51;10.57;;;8.52;;
495;SDS011;39559;48.630;9.162;2022-12-07T01:10:16;8.67;;;7.10;;
495;SDS011;39559;48.630;9.162;2022-12-07T01:12:42;10.53;;;7.83;;
495;SDS011;39559;48.630;9.162;2022-12-07T01:15:07;10.77;;;9.00;;
495;SDS011;39559;48.630;9.162;2022-12-07T01:17:34;11.02;;;8.82;;
495;SDS011;39559;48.630;9.162;2022-12-07T01:19:59;10.45;;;8.20;;
495;SDS011;39559;48.630;9.162;2022-12-07T01:22:26;8.68;;;7.78;;
495;SDS011;39559;48.630;9.162;2022-12-07T01:24:51;10.40;;;8.40;;
495;SDS011;39559;48.630;9.162;2022-12-07T01:27:17;8.77;;;7.70;;
495;SDS011;39559;48.630;9.162;2022-12-07T01:31:51;10.38;;;8.05;;
495;SDS011;39559;48.630;9.162;2022-12-07T01:34:17;9.97;;;7.97;;
495;SDS011;39559;48.630;9.162;2022-12-07T01:36:42;12.13;;;8.67;;
495;SDS011;39559;48.630;9.162;2022-12-07T01:39:08;10.47;;;8.33;;
495;SDS011;39559;48.630;9.162;2022-12-07T01:41:36;10.23;;;8.00;;
495;SDS011;39559;48.630;9.162;2022-12-07T01:44:13;12.90;;;8.48;;
495;SDS011;39559;48.630;9.162;2022-12-07T01:46:45;12.52;;;9.20;;
495;SDS011;39559;48.630;9.162;2022-12-07T01:49:14;9.80;;;8.40;;
495;SDS011;39559;48.630;9.162;2022-12-07T01:51:43;13.05;;;9.50;;
495;SDS011;39559;48.630;9.162;2022-12-07T01:55:52;9.38;;;7.90;;
495;SDS011;39559;48.630;9.162;2022-12-07T01:58:20;11.07;;;8.40;;
495;SDS011;39559;48.630;9.162;2022-12-07T02:00:46;10.93;;;8.48;;
495;SDS011;39559;48.630;9.162;2022-12-07T02:05:52;13.35;;;9.82;;
495;SDS011;39559;48.630;9.162;2022-12-07T02:08:19;13.18;;;9.00;;
495;SDS011;39559;48.630;9.162;2022-12-07T02:10:45;12.43;;;8.75;;
495;SDS011;39559;48.630;9.162;2022-12-07T02:13:15;11.73;;;8.80;;
495;SDS011;39559;48.630;9.162;2022-12-07T02:20:06;12.52;;;9.02;;
495;SDS011;39559;48.630;9.162;2022-12-07T02:28:07;16.02;;;11.00;;
495;SDS011;39559;48.630;9.162;2022-12-07T02:30:44;13.60;;;10.60;;
495;SDS011;39559;48.630;9.162;2022-12-07T02:33:17;14.98;;;10.10;;
495;SDS011;39559;48.630;9.162;2022-12-07T02:41:04;15.05;;;9.90;;
495;SDS011;39559;48.630;9.162;2022-12-07T02:43:55;15.88;;;11.00;;
495;SDS011;39559;48.630;9.162;2022-12-07T02:46:25;14.93;;;10.80;;
495;SDS011;39559;48.630;9.162;2022-12-07T02:48:55;16.70;;;10.70;;
495;SDS011;39559;48.630;9.162;2022-12-07T02:51:21;16.63;;;11.27;;
495;SDS011;39559;48.630;9.162;2022-12-07T02:53:47;14.30;;;10.73;;
495;SDS011;39559;48.630;9.162;2022-12-07T02:59:02;15.95;;;10.63;;
495;SDS011;39559;48.630;9.162;2022-12-07T03:11:08;16.80;;;11.40;;
495;SDS011;39559;48.630;9.162;2022-12-07T03:16:27;14.75;;;10.05;;
495;SDS011;39559;48.630;9.162;2022-12-07T03:19:09;13.35;;;10.00;;
495;SDS011;39559;48.630;9.162;2022-12-07T03:21:44;15.32;;;10.63;;
495;SDS011;39559;48.630;9.162;2022-12-07T03:24:16;13.43;;;10.10;;
495;SDS011;39559;48.630;9.162;2022-12-07T03:26:47;14.30;;;10.43;;
495;SDS011;39559;48.630;9.162;2022-12-07T03:32:01;15.50;;;10.57;;
495;SDS011;39559;48.630;9.162;2022-12-07T03:34:41;13.98;;;9.95;;
495;SDS011;39559;48.630;9.162;2022-12-07T03:37:30;13.60;;;9.60;;
495;SDS011;39559;48.630;9.162;2022-12-07T03:42:31;14.90;;;10.00;;
495;SDS011;39559;48.630;9.162;2022-12-07T03:44:58;14.75;;;10.05;;
495;SDS011;39559;48.630;9.162;2022-12-07T03:55:57;13.45;;;10.07;;
495;SDS011;39559;48.630;9.162;2022-12-07T03:58:23;14.85;;;9.75;;
495;SDS011;39559;48.630;9.162;2022-12-07T04:00:50;15.63;;;11.05;;
495;SDS011;39559;48.630;9.162;2022-12-07T04:03:16;18.17;;;11.52;;
495;SDS011;39559;48.630;9.162;2022-12-07T04:05:42;13.20;;;9.83;;
495;SDS011;39559;48.630;9.162;2022-12-07T04:08:08;13.35;;;10.07;;
495;SDS011;39559;48.630;9.162;2022-12-07T04:10:34;16.70;;;11.38;;
495;SDS011;39559;48.630;9.162;2022-12-07T04:13:00;15.90;;;10.90;;
495;SDS011;39559;48.630;9.162;2022-12-07T04:15:25;15.70;;;9.17;;
495;SDS011;39559;48.630;9.162;2022-12-07T04:19:58;14.02;;;9.38;;
495;SDS011;39559;48.630;9.162;2022-12-07T04:22:23;15.33;;;9.97;;
495;SDS011;39559;48.630;9.162;2022-12-07T04:24:49;14.10;;;9.40;;
495;SDS011;39559;48.630;9.162;2022-12-07T04:27:14;13.07;;;9.67;;
495;SDS011;39559;48.630;9.162;2022-12-07T04:29:40;13.43;;;10.00;;
495;SDS011;39559;48.630;9.162;2022-12-07T04:32:05;13.93;;;9.43;;
495;SDS011;39559;48.630;9.162;2022-12-07T04:34:31;12.70;;;9.80;;
495;SDS011;39559;48.630;9.162;2022-12-07T04:36:57;16.37;;;9.83;;
495;SDS011;39559;48.630;9.162;2022-12-07T04:39:23;13.50;;;9.67;;
495;SDS011;39559;48.630;9.162;2022-12-07T04:44:02;13.27;;;9.10;;
495;SDS011;39559;48.630;9.162;2022-12-07T04:46:32;14.00;;;9.60;;
495;SDS011;39559;48.630;9.162;2022-12-07T04:48:58;16.00;;;10.35;;
495;SDS011;39559;48.630;9.162;2022-12-07T04:51:27;13.50;;;9.40;;
495;SDS011;39559;48.630;9.162;2022-12-07T04:53:54;18.40;;;11.15;;
495;SDS011;39559;48.630;9.162;2022-12-07T04:56:21;18.23;;;10.63;;
495;SDS011;39559;48.630;9.162;2022-12-07T04:58:47;15.95;;;11.52;;
495;SDS011;39559;48.630;9.162;2022-12-07T05:01:14;14.77;;;10.77;;
495;SDS011;39559;48.630;9.162;2022-12-07T05:03:41;14.88;;;9.95;;
495;SDS011;39559;48.630;9.162;2022-12-07T05:07:59;15.48;;;9.88;;
495;SDS011;39559;48.630;9.162;2022-12-07T05:10:25;13.03;;;9.90;;
495;SDS011;39559;48.630;9.162;2022-12-07T05:12:50;15.00;;;10.10;;
495;SDS011;39559;48.630;9.162;2022-12-07T05:15:16;16.40;;;10.80;;
495;SDS011;39559;48.630;9.162;2022-12-07T05:17:42;15.73;;;10.20;;
495;SDS011;39559;48.630;9.162;2022-12-07T05:20:08;14.10;;;11.07;;
495;SDS011;39559;48.630;9.162;2022-12-07T05:22:34;13.90;;;9.70;;
495;SDS011;39559;48.630;9.162;2022-12-07T05:24:59;13.67;;;9.43;;
495;SDS011;39559;48.630;9.162;2022-12-07T05:27:25;14.90;;;10.63;;
495;SDS011;39559;48.630;9.162;2022-12-07T05:32:00;11.75;;;9.18;;
495;SDS011;39559;48.630;9.162;2022-12-07T05:34:26;13.87;;;8.83;;
495;SDS011;39559;48.630;9.162;2022-12-07T05:36:51;13.50;;;9.47;;
495;SDS011;39559;48.630;9.162;2022-12-07T05:39:17;14.37;;;9.50;;
495;SDS011;39559;48.630;9.162;2022-12-07T05:41:42;10.40;;;8.00;;
495;SDS011;39559;48.630;9.162;2022-12-07T05:44:26;9.60;;;7.78;;
495;SDS011;39559;48.630;9.162;2022-12-07T05:46:52;9.57;;;7.50;;
495;SDS011;39559;48.630;9.162;2022-12-07T05:49:17;10.23;;;7.80;;
495;SDS011;39559;48.630;9.162;2022-12-07T05:51:43;11.73;;;7.70;;
495;SDS011;39559;48.630;9.162;2022-12-07T05:56:02;12.02;;;8.05;;
495;SDS011;39559;48.630;9.162;2022-12-07T05:58:27;9.83;;;7.90;;
495;SDS011;39559;48.630;9.162;2022-12-07T06:01:11;10.15;;;8.23;;
495;SDS011;39559;48.630;9.162;2022-12-07T06:03:37;12.20;;;8.60;;
495;SDS011;39559;48.630;9.162;2022-12-07T06:06:02;11.70;;;8.10;;
495;SDS011;39559;48.630;9.162;2022-12-07T06:08:28;11.10;;;8.23;;
495;SDS011;39559;48.630;9.162;2022-12-07T06:10:53;11.90;;;9.77;;
495;SDS011;39559;48.630;9.162;2022-12-07T06:13:39;12.70;;;9.45;;
495;SDS011;39559;48.630;9.162;2022-12-07T06:16:04;13.47;;;9.40;;
495;SDS011;39559;48.630;9.162;2022-12-07T06:20:03;12.35;;;8.40;;
495;SDS011;39559;48.630;9.162;2022-12-07T06:22:29;11.55;;;8.35;;
495;SDS011;39559;48.630;9.162;2022-12-07T06:24:54;12.17;;;8.73;;
495;SDS011;39559;48.630;9.162;2022-12-07T06:27:20;10.80;;;7.30;;
495;SDS011;39559;48.630;9.162;2022-12-07T06:29:45;10.17;;;7.60;;
495;SDS011;39559;48.630;9.162;2022-12-07T06:32:11;9.53;;;7.07;;
495;SDS011;39559;48.630;9.162;2022-12-07T06:34:37;8.67;;;6.90;;
495;SDS011;39559;48.630;9.162;2022-12-07T06:37:02;9.00;;;6.70;;
495;SDS011;39559;48.630;9.162;2022-12-07T06:39:28;8.87;;;6.40;;
495;SDS011;39559;48.630;9.162;2022-12-07T06:44:04;9.18;;;6.82;;
495;SDS011;39559;48.630;9.162;2022-12-07T06:46:31;10.57;;;7.20;;
495;SDS011;39559;48.630;9.162;2022-12-07T06:48:57;9.33;;;7.40;;
495;SDS011;39559;48.630;9.162;2022-12-07T06:51:22;8.67;;;7.13;;
495;SDS011;39559;48.630;9.162;2022-12-07T06:53:48;8.03;;;6.47;;
495;SDS011;39559;48.630;9.162;2022-12-07T06:56:13;11.87;;;8.03;;
495;SDS011;39559;48.630;9.162;2022-12-07T06:58:39;10.10;;;7.35;;
495;SDS011;39559;48.630;9.162;2022-12-07T07:01:17;10.90;;;7.50;;
495;SDS011;39559;48.630;9.162;2022-12-07T07:03:44;13.98;;;8.77;;
495;SDS011;39559;48.630;9.162;2022-12-07T07:08:06;8.18;;;6.50;;
495;SDS011;39559;48.630;9.162;2022-12-07T07:10:31;8.82;;;5.95;;
495;SDS011;39559;48.630;9.162;2022-12-07T07:12:57;8.40;;;5.97;;
495;SDS011;39559;48.630;9.162;2022-12-07T07:15:22;7.40;;;5.67;;
495;SDS011;39559;48.630;9.162;2022-12-07T07:17:48;9.70;;;6.57;;
495;SDS011;39559;48.630;9.162;2022-12-07T07:20:13;9.27;;;7.00;;
495;SDS011;39559;48.630;9.162;2022-12-07T07:22:39;11.70;;;7.50;;
495;SDS011;39559;48.630;9.162;2022-12-07T07:25:04;11.90;;;8.00;;
495;SDS011;39559;48.630;9.162;2022-12-07T07:27:30;10.80;;;7.80;;
495;SDS011;39559;48.630;9.162;2022-12-07T07:32:06;12.75;;;7.53;;
495;SDS011;39559;48.630;9.162;2022-12-07T07:34:32;10.37;;;7.57;;
495;SDS011;39559;48.630;9.162;2022-12-07T07:36:58;12.32;;;8.85;;
495;SDS011;39559;48.630;9.162;2022-12-07T07:39:25;11.95;;;8.68;;
495;SDS011;39559;48.630;9.162;2022-12-07T07:41:50;9.60;;;7.33;;
495;SDS011;39559;48.630;9.162;2022-12-07T07:44:16;11.70;;;7.70;;
495;SDS011;39559;48.630;9.162;2022-12-07T07:46:41;12.47;;;9.07;;
495;SDS011;39559;48.630;9.162;2022-12-07T07:49:08;13.60;;;9.10;;
495;SDS011;39559;48.630;9.162;2022-12-07T07:51:35;12.00;;;8.75;;
495;SDS011;39559;48.630;9.162;2022-12-07T07:56:08;11.25;;;8.25;;
495;SDS011;39559;48.630;9.162;2022-12-07T07:58:33;13.07;;;9.77;;
495;SDS011;39559;48.630;9.162;2022-12-07T08:01:05;10.97;;;8.73;;
495;SDS011;39559;48.630;9.162;2022-12-07T08:03:32;12.80;;;7.78;;
495;SDS011;39559;48.630;9.162;2022-12-07T08:05:57;11.77;;;7.80;;
495;SDS011;39559;48.630;9.162;2022-12-07T08:08:23;14.57;;;9.70;;
495;SDS011;39559;48.630;9.162;2022-12-07T08:10:48;15.80;;;9.50;;
495;SDS011;39559;48.630;9.162;2022-12-07T08:13:16;13.50;;;9.13;;
495;SDS011;39559;48.630;9.162;2022-12-07T08:15:43;14.13;;;9.52;;
495;SDS011;39559;48.630;9.162;2022-12-07T08:20:09;14.07;;;8.25;;
495;SDS011;39559;48.630;9.162;2022-12-07T08:22:34;13.27;;;7.97;;
495;SDS011;39559;48.630;9.162;2022-12-07T08:25:00;12.53;;;9.10;;
495;SDS011;39559;48.630;9.162;2022-12-07T08:27:25;13.57;;;8.73;;
495;SDS011;39559;48.630;9.162;2022-12-07T08:29:52;12.82;;;8.82;;
495;SDS011;39559;48.630;9.162;2022-12-07T08:32:17;10.63;;;7.63;;
495;SDS011;39559;48.630;9.162;2022-12-07T08:34:43;9.30;;;7.37;;
495;SDS011;39559;48.630;9.162;2022-12-07T08:37:09;10.80;;;8.27;;
495;SDS011;39559;48.630;9.162;2022-12-07T08:39:35;14.13;;;7.80;;
495;SDS011;39559;48.630;9.162;2022-12-07T08:44:10;10.68;;;8.45;;
495;SDS011;39559;48.630;9.162;2022-12-07T08:46:44;10.70;;;8.80;;
495;SDS011;39559;48.630;9.162;2022-12-07T08:49:20;12.60;;;8.15;;
495;SDS011;39559;48.630;9.162;2022-12-07T08:51:50;11.00;;;8.55;;
495;SDS011;39559;48.630;9.162;2022-12-07T08:54:16;14.40;;;8.43;;
495;SDS011;39559;48.630;9.162;2022-12-07T08:56:43;11.70;;;9.25;;
495;SDS011;39559;48.630;9.162;2022-12-07T08:59:12;13.98;;;8.63;;
495;SDS011;39559;48.630;9.162;2022-12-07T09:01:39;11.88;;;8.68;;
495;SDS011;39559;48.630;9.162;2022-12-07T09:04:05;11.87;;;8.77;;
495;SDS011;39559;48.630;9.162;2022-12-07T09:08:10;11.50;;;8.10;;
495;SDS011;39559;48.630;9.162;2022-12-07T09:10:35;13.40;;;9.17;;
495;SDS011;39559;48.630;9.162;2022-12-07T09:13:01;11.10;;;8.00;;
495;SDS011;39559;48.630;9.162;2022-12-07T09:15:27;14.37;;;8.13;;
495;SDS011;39559;48.630;9.162;2022-12-07T09:17:53;11.07;;;8.38;;
495;SDS011;39559;48.630;9.162;2022-12-07T09:20:19;11.40;;;7.67;;
495;SDS011;39559;48.630;9.162;2022-12-07T09:22:45;9.73;;;7.47;;
495;SDS011;39559;48.630;9.162;2022-12-07T09:25:10;8.50;;;6.87;;
495;SDS011;39559;48.630;9.162;2022-12-07T09:27:36;6.90;;;5.37;;
495;SDS011;39559;48.630;9.162;2022-12-07T09:32:13;7.80;;;5.65;;
495;SDS011;39559;48.630;9.162;2022-12-07T09:34:38;5.37;;;4.67;;
495;SDS011;39559;48.630;9.162;2022-12-07T09:37:03;9.23;;;5.97;;
495;SDS011;39559;48.630;9.162;2022-12-07T09:39:29;6.97;;;5.00;;
495;SDS011;39559;48.630;9.162;2022-12-07T09:41:56;5.97;;;5.20;;
495;SDS011;39559;48.630;9.162;2022-12-07T09:44:25;5.30;;;4.50;;
495;SDS011;39559;48.630;9.162;2022-12-07T09:46:52;7.55;;;5.20;;
495;SDS011;39559;48.630;9.162;2022-12-07T09:49:21;6.10;;;4.33;;
495;SDS011;39559;48.630;9.162;2022-12-07T09:51:59;9.13;;;5.65;;
495;SDS011;39559;48.630;9.162;2022-12-07T09:56:15;5.43;;;4.28;;
495;SDS011;39559;48.630;9.162;2022-12-07T09:58:42;5.78;;;4.10;;
495;SDS011;39559;48.630;9.162;2022-12-07T10:03:35;6.28;;;4.38;;
495;SDS011;39559;48.630;9.162;2022-12-07T10:06:04;5.85;;;4.30;;
495;SDS011;39559;48.630;9.162;2022-12-07T10:08:31;6.72;;;5.00;;
495;SDS011;39559;48.630;9.162;2022-12-07T10:10:57;8.30;;;5.10;;
495;SDS011;39559;48.630;9.162;2022-12-07T10:16:06;5.95;;;5.15;;
495;SDS011;39559;48.630;9.162;2022-12-07T10:20:20;6.65;;;5.10;;
495;SDS011;39559;48.630;9.162;2022-12-07T10:25:23;6.25;;;5.00;;
495;SDS011;39559;48.630;9.162;2022-12-07T10:28:02;6.72;;;5.20;;
495;SDS011;39559;48.630;9.162;2022-12-07T10:36:09;8.48;;;5.43;;
495;SDS011;39559;48.630;9.162;2022-12-07T10:38:44;5.80;;;5.10;;
495;SDS011;39559;48.630;9.162;2022-12-07T10:41:11;8.25;;;5.57;;
495;SDS011;39559;48.630;9.162;2022-12-07T10:44:20;5.43;;;4.75;;
495;SDS011;39559;48.630;9.162;2022-12-07T10:46:53;7.03;;;5.07;;
495;SDS011;39559;48.630;9.162;2022-12-07T11:00:19;5.70;;;5.00;;
495;SDS011;39559;48.630;9.162;2022-12-07T11:13:32;5.35;;;4.78;;
495;SDS011;39559;48.630;9.162;2022-12-07T11:21:42;8.45;;;5.00;;
495;SDS011;39559;48.630;9.162;2022-12-07T11:24:15;7.18;;;4.78;;
495;SDS011;39559;48.630;9.162;2022-12-07T11:35:18;7.07;;;5.00;;
495;SDS011;39559;48.630;9.162;2022-12-07T11:38:08;7.20;;;5.10;;
495;SDS011;39559;48.630;9.162;2022-12-07T11:40:39;8.50;;;5.68;;
495;SDS011;39559;48.630;9.162;2022-12-07T11:48:35;6.10;;;4.85;;
495;SDS011;39559;48.630;9.162;2022-12-07T11:51:06;8.15;;;5.03;;
495;SDS011;39559;48.630;9.162;2022-12-07T11:56:20;9.10;;;6.50;;
495;SDS011;39559;48.630;9.162;2022-12-07T11:58:55;8.40;;;5.75;;
495;SDS011;39559;48.630;9.162;2022-12-07T12:01:38;7.40;;;5.15;;
495;SDS011;39559;48.630;9.162;2022-12-07T12:04:23;7.72;;;5.53;;
495;SDS011;39559;48.630;9.162;2022-12-07T12:06:54;7.47;;;5.15;;
495;SDS011;39559;48.630;9.162;2022-12-07T12:09:35;6.10;;;5.47;;
495;SDS011;39559;48.630;9.162;2022-12-07T12:25:27;5.00;;;4.50;;
495;SDS011;39559;48.630;9.162;2022-12-07T12:27:56;5.55;;;4.90;;
495;SDS011;39559;48.630;9.162;2022-12-07T12:30:34;4.95;;;4.45;;
495;SDS011;39559;48.630;9.162;2022-12-07T12:33:26;5.20;;;4.63;;
495;SDS011;39559;48.630;9.162;2022-12-07T12:51:52;7.03;;;5.30;;
495;SDS011;39559;48.630;9.162;2022-12-07T12:54:27;7.55;;;5.25;;
495;SDS011;39559;48.630;9.162;2022-12-07T13:05:00;5.80;;;4.32;;
495;SDS011;39559;48.630;9.162;2022-12-07T13:08:21;6.75;;;4.68;;
495;SDS011;39559;48.630;9.162;2022-12-07T13:10:50;7.03;;;4.13;;
495;SDS011;39559;48.630;9.162;2022-12-07T13:15:48;6.30;;;4.47;;
495;SDS011;39559;48.630;9.162;2022-12-07T13:23:38;7.03;;;4.20;;
495;SDS011;39559;48.630;9.162;2022-12-07T13:26:20;6.68;;;4.10;;
495;SDS011;39559;48.630;9.162;2022-12-07T13:29:04;5.20;;;3.97;;
495;SDS011;39559;48.630;9.162;2022-12-07T13:32:23;4.93;;;3.90;;
495;SDS011;39559;48.630;9.162;2022-12-07T13:34:51;5.32;;;4.63;;
495;SDS011;39559;48.630;9.162;2022-12-07T13:37:26;4.70;;;4.10;;
495;SDS011;39559;48.630;9.162;2022-12-07T13:39:54;5.78;;;4.20;;
495;SDS011;39559;48.630;9.162;2022-12-07T13:42:24;6.30;;;4.93;;
495;SDS011;39559;48.630;9.162;2022-12-07T13:44:58;5.00;;;4.50;;
495;SDS011;39559;48.630;9.162;2022-12-07T13:47:32;6.00;;;4.63;;
495;SDS011;39559;48.630;9.162;2022-12-07T13:50:29;6.70;;;4.55;;
495;SDS011;39559;48.630;9.162;2022-12-07T13:52:57;6.03;;;5.15;;
495;SDS011;39559;48.630;9.162;2022-12-07T13:56:25;6.20;;;4.90;;
495;SDS011;39559;48.630;9.162;2022-12-07T13:58:56;4.68;;;4.00;;
495;SDS011;39559;48.630;9.162;2022-12-07T14:01:23;5.60;;;4.30;;
495;SDS011;39559;48.630;9.162;2022-12-07T14:03:50;5.25;;;4.05;;
495;SDS011;39559;48.630;9.162;2022-12-07T14:06:25;3.97;;;3.53;;
495;SDS011;39559;48.630;9.162;2022-12-07T14:09:08;5.30;;;4.25;;
495;SDS011;39559;48.630;9.162;2022-12-07T14:11:52;4.30;;;3.90;;
495;SDS011;39559;48.630;9.162;2022-12-07T14:14:20;4.30;;;3.75;;
495;SDS011;39559;48.630;9.162;2022-12-07T14:20:36;5.13;;;3.58;;
495;SDS011;39559;48.630;9.162;2022-12-07T14:23:04;4.07;;;3.67;;
495;SDS011;39559;48.630;9.162;2022-12-07T14:25:46;4.03;;;3.63;;
495;SDS011;39559;48.630;9.162;2022-12-07T14:30:56;4.28;;;3.88;;
495;SDS011;39559;48.630;9.162;2022-12-07T14:33:22;4.65;;;4.07;;
495;SDS011;39559;48.630;9.162;2022-12-07T14:35:48;4.38;;;3.85;;
495;SDS011;39559;48.630;9.162;2022-12-07T14:38:14;4.73;;;4.20;;
495;SDS011;39559;48.630;9.162;2022-12-07T14:40:40;5.87;;;4.40;;
495;SDS011;39559;48.630;9.162;2022-12-07T14:44:23;4.72;;;4.22;;
495;SDS011;39559;48.630;9.162;2022-12-07T14:46:49;5.43;;;4.17;;
495;SDS011;39559;48.630;9.162;2022-12-07T14:49:15;6.22;;;4.13;;
495;SDS011;39559;48.630;9.162;2022-12-07T14:51:41;6.65;;;4.85;;
495;SDS011;39559;48.630;9.162;2022-12-07T14:54:18;5.80;;;4.60;;
495;SDS011;39559;48.630;9.162;2022-12-07T14:56:45;4.95;;;4.10;;
495;SDS011;39559;48.630;9.162;2022-12-07T14:59:17;5.82;;;4.07;;
495;SDS011;39559;48.630;9.162;2022-12-07T15:01:44;4.22;;;3.83;;
495;SDS011;39559;48.630;9.162;2022-12-07T15:04:09;4.60;;;4.00;;
495;SDS011;39559;48.630;9.162;2022-12-07T15:08:24;5.05;;;4.20;;
495;SDS011;39559;48.630;9.162;2022-12-07T15:10:49;7.03;;;4.33;;
495;SDS011;39559;48.630;9.162;2022-12-07T15:13:15;4.13;;;3.70;;
495;SDS011;39559;48.630;9.162;2022-12-07T15:15:59;5.45;;;3.92;;
495;SDS011;39559;48.630;9.162;2022-12-07T15:18:25;5.28;;;3.90;;
495;SDS011;39559;48.630;9.162;2022-12-07T15:20:50;4.27;;;3.70;;
495;SDS011;39559;48.630;9.162;2022-12-07T15:23:16;4.38;;;3.97;;
495;SDS011;39559;48.630;9.162;2022-12-07T15:25:46;4.40;;;3.87;;
495;SDS011;39559;48.630;9.162;2022-12-07T15:28:13;6.85;;;4.03;;
495;SDS011;39559;48.630;9.162;2022-12-07T15:32:24;7.65;;;4.72;;
495;SDS011;39559;48.630;9.162;2022-12-07T15:34:50;5.50;;;4.37;;
495;SDS011;39559;48.630;9.162;2022-12-07T15:37:15;6.50;;;5.23;;
495;SDS011;39559;48.630;9.162;2022-12-07T15:39:41;4.80;;;4.30;;
495;SDS011;39559;48.630;9.162;2022-12-07T15:42:07;6.00;;;5.20;;
495;SDS011;39559;48.630;9.162;2022-12-07T15:44:32;5.63;;;4.43;;
495;SDS011;39559;48.630;9.162;2022-12-07T15:47:17;5.25;;;4.25;;
495;SDS011;39559;48.630;9.162;2022-12-07T15:49:42;8.10;;;4.80;;
495;SDS011;39559;48.630;9.162;2022-12-07T15:52:08;6.30;;;4.40;;
495;SDS011;39559;48.630;9.162;2022-12-07T15:56:25;5.05;;;4.07;;
495;SDS011;39559;48.630;9.162;2022-12-07T15:58:50;5.50;;;4.13;;
495;SDS011;39559;48.630;9.162;2022-12-07T16:01:17;7.63;;;5.73;;
495;SDS011;39559;48.630;9.162;2022-12-07T16:03:43;5.40;;;4.30;;
495;SDS011;39559;48.630;9.162;2022-12-07T16:06:09;4.93;;;4.00;;
495;SDS011;39559;48.630;9.162;2022-12-07T16:08:35;5.17;;;4.17;;
495;SDS011;39559;48.630;9.162;2022-12-07T16:11:05;5.53;;;3.73;;
495;SDS011;39559;48.630;9.162;2022-12-07T16:13:31;4.75;;;4.25;;
495;SDS011;39559;48.630;9.162;2022-12-07T16:15:57;5.53;;;4.95;;
495;SDS011;39559;48.630;9.162;2022-12-07T16:20:25;5.85;;;5.25;;
495;SDS011;39559;48.630;9.162;2022-12-07T16:22:51;6.00;;;4.53;;
495;SDS011;39559;48.630;9.162;2022-12-07T16:25:18;6.35;;;5.65;;
495;SDS011;39559;48.630;9.162;2022-12-07T16:27:43;8.27;;;6.00;;
495;SDS011;39559;48.630;9.162;2022-12-07T16:30:09;8.03;;;6.47;;
495;SDS011;39559;48.630;9.162;2022-12-07T16:32:36;11.40;;;8.65;;
495;SDS011;39559;48.630;9.162;2022-12-07T16:35:02;9.07;;;7.80;;
495;SDS011;39559;48.630;9.162;2022-12-07T16:37:28;11.10;;;7.47;;
495;SDS011;39559;48.630;9.162;2022-12-07T16:39:53;11.30;;;7.93;;
495;SDS011;39559;48.630;9.162;2022-12-07T16:44:26;9.93;;;8.00;;
495;SDS011;39559;48.630;9.162;2022-12-07T16:46:51;10.67;;;7.57;;
495;SDS011;39559;48.630;9.162;2022-12-07T16:49:17;11.40;;;8.37;;
495;SDS011;39559;48.630;9.162;2022-12-07T16:51:43;9.77;;;8.32;;
495;SDS011;39559;48.630;9.162;2022-12-07T16:54:10;12.63;;;9.00;;
495;SDS011;39559;48.630;9.162;2022-12-07T16:56:37;10.98;;;9.20;;
495;SDS011;39559;48.630;9.162;2022-12-07T16:59:02;10.87;;;8.13;;
495;SDS011;39559;48.630;9.162;2022-12-07T17:01:28;13.73;;;8.93;;
495;SDS011;39559;48.630;9.162;2022-12-07T17:03:54;12.52;;;8.48;;
495;SDS011;39559;48.630;9.162;2022-12-07T17:08:26;11.68;;;9.57;;
495;SDS011;39559;48.630;9.162;2022-12-07T17:10:52;14.53;;;10.13;;
495;SDS011;39559;48.630;9.162;2022-12-07T17:13:17;14.40;;;10.20;;
495;SDS011;39559;48.630;9.162;2022-12-07T17:16:02;12.43;;;9.95;;
495;SDS011;39559;48.630;9.162;2022-12-07T17:18:32;10.10;;;8.55;;
495;SDS011;39559;48.630;9.162;2022-12-07T17:21:03;12.35;;;8.45;;
495;SDS011;39559;48.630;9.162;2022-12-07T17:23:30;10.60;;;8.50;;
495;SDS011;39559;48.630;9.162;2022-12-07T17:26:03;10.05;;;8.02;;
495;SDS011;39559;48.630;9.162;2022-12-07T17:28:30;10.32;;;8.55;;
495;SDS011;39559;48.630;9.162;2022-12-07T17:32:27;11.13;;;8.32;;
495;SDS011;39559;48.630;9.162;2022-12-07T17:34:52;13.53;;;9.40;;
495;SDS011;39559;48.630;9.162;2022-12-07T17:37:18;13.07;;;9.77;;
495;SDS011;39559;48.630;9.162;2022-12-07T17:39:43;12.70;;;9.77;;
495;SDS011;39559;48.630;9.162;2022-12-07T17:42:09;14.43;;;10.90;;
495;SDS011;39559;48.630;9.162;2022-12-07T17:44:53;15.45;;;11.95;;
495;SDS011;39559;48.630;9.162;2022-12-07T17:47:18;12.80;;;9.73;;
495;SDS011;39559;48.630;9.162;2022-12-07T17:49:45;13.48;;;9.90;;
495;SDS011;39559;48.630;9.162;2022-12-07T17:52:12;10.98;;;8.05;;
495;SDS011;39559;48.630;9.162;2022-12-07T17:56:27;9.13;;;7.75;;
495;SDS011;39559;48.630;9.162;2022-12-07T17:58:53;11.13;;;8.20;;
495;SDS011;39559;48.630;9.162;2022-12-07T18:01:18;10.10;;;7.60;;
495;SDS011;39559;48.630;9.162;2022-12-07T18:03:44;10.10;;;7.43;;
495;SDS011;39559;48.630;9.162;2022-12-07T18:06:09;10.33;;;7.90;;
495;SDS011;39559;48.630;9.162;2022-12-07T18:08:35;10.60;;;7.20;;
495;SDS011;39559;48.630;9.162;2022-12-07T18:11:03;11.50;;;7.63;;
495;SDS011;39559;48.630;9.162;2022-12-07T18:13:30;12.38;;;8.25;;
495;SDS011;39559;48.630;9.162;2022-12-07T18:16:21;10.65;;;7.38;;
495;SDS011;39559;48.630;9.162;2022-12-07T18:20:28;11.18;;;8.52;;
495;SDS011;39559;48.630;9.162;2022-12-07T18:22:54;9.30;;;7.20;;
495;SDS011;39559;48.630;9.162;2022-12-07T18:25:19;12.10;;;7.87;;
495;SDS011;39559;48.630;9.162;2022-12-07T18:27:45;10.00;;;6.73;;
495;SDS011;39559;48.630;9.162;2022-12-07T18:30:10;10.87;;;7.13;;
495;SDS011;39559;48.630;9.162;2022-12-07T18:32:36;11.73;;;8.07;;
495;SDS011;39559;48.630;9.162;2022-12-07T18:35:02;9.57;;;7.13;;
495;SDS011;39559;48.630;9.162;2022-12-07T18:37:28;10.90;;;7.60;;
495;SDS011;39559;48.630;9.162;2022-12-07T18:39:53;10.80;;;7.90;;
495;SDS011;39559;48.630;9.162;2022-12-07T18:44:29;10.40;;;8.10;;
495;SDS011;39559;48.630;9.162;2022-12-07T18:46:54;10.80;;;7.70;;
495;SDS011;39559;48.630;9.162;2022-12-07T18:49:20;9.53;;;6.97;;
495;SDS011;39559;48.630;9.162;2022-12-07T18:51:45;13.00;;;8.63;;